createdAt,value
2023-04-04T00:01:12.787Z,102882.34
2023-04-04T00:03:41.309Z,102885.75
2023-04-04T00:06:10.019Z,102883.06
2023-04-04T00:08:38.509Z,102885.59
2023-04-04T00:11:08.254Z,102884.59
2023-04-04T00:13:36.732Z,102880.09
2023-04-04T00:16:05.432Z,102875.94
2023-04-04T00:18:34.233Z,102875.47
2023-04-04T00:21:02.681Z,102895.84
2023-04-04T00:23:31.174Z,102875.81
2023-04-04T00:25:59.448Z,102871.31
2023-04-04T00:28:29.166Z,102863.97
2023-04-04T00:30:57.654Z,102868.47
2023-04-04T00:33:26.048Z,102864.84
2023-04-04T00:35:54.787Z,102869.13
2023-04-04T00:38:23.165Z,102864.47
2023-04-04T00:40:52.627Z,102863.53
2023-04-04T00:43:21.132Z,102856.56
2023-04-04T00:45:51.642Z,102860.88
2023-04-04T00:48:21.653Z,102864.47
2023-04-04T00:50:50.120Z,102869.56
2023-04-04T00:53:18.751Z,102872.97
2023-04-04T00:55:47.132Z,102869.50
2023-04-04T00:58:15.507Z,102866.69
2023-04-04T01:00:44.050Z,102862.00
2023-04-04T01:03:14.257Z,102856.59
2023-04-04T01:05:43.226Z,102867.97
2023-04-04T01:08:11.808Z,102858.22
2023-04-04T01:10:41.161Z,102861.75
2023-04-04T01:13:10.811Z,102858.16
2023-04-04T01:15:39.435Z,102844.84
2023-04-04T01:18:09.447Z,102849.13
2023-04-04T01:20:52.497Z,102845.72
2023-04-04T01:23:25.854Z,102825.66
2023-04-04T01:26:03.854Z,102838.28
2023-04-04T01:28:33.907Z,102842.78
2023-04-04T01:31:07.405Z,102851.28
2023-04-04T01:33:42.191Z,102846.81
2023-04-04T01:36:19.523Z,102846.91
2023-04-04T01:38:56.602Z,102791.00
2023-04-04T01:41:27.446Z,102873.16
2023-04-04T01:43:59.123Z,102840.50
2023-04-04T01:46:28.349Z,102841.28
2023-04-04T01:48:57.065Z,102868.44
2023-04-04T01:51:31.960Z,102839.38
2023-04-04T01:54:00.478Z,102845.41
2023-04-04T01:56:30.749Z,102839.94
2023-04-04T01:58:59.402Z,102847.03
2023-04-04T02:01:27.727Z,102842.22
2023-04-04T02:03:56.286Z,102843.91
2023-04-04T02:06:24.595Z,102840.31
2023-04-04T02:08:53.772Z,102841.88
2023-04-04T02:11:23.070Z,102842.69
2023-04-04T02:13:53.354Z,102741.19
2023-04-04T02:16:22.262Z,102842.31
2023-04-04T02:18:50.670Z,102843.16
2023-04-04T02:21:19.098Z,102842.53
2023-04-04T02:23:48.567Z,102850.47
2023-04-04T02:26:16.929Z,102848.75
2023-04-04T02:28:45.233Z,102844.91
2023-04-04T02:31:15.019Z,102852.94
2023-04-04T02:33:43.398Z,102853.09
2023-04-04T02:36:12.935Z,102855.69
2023-04-04T02:38:42.021Z,102857.34
2023-04-04T02:41:10.564Z,102841.06
2023-04-04T02:43:38.969Z,102831.38
2023-04-04T02:46:20.460Z,102833.28
2023-04-04T02:48:53.160Z,102823.94
2023-04-04T02:51:21.600Z,102827.50
2023-04-04T02:53:50.026Z,102822.16
2023-04-04T02:56:26.624Z,102823.22
2023-04-04T02:58:55.596Z,102825.84
2023-04-04T03:01:24.256Z,102826.59
2023-04-04T03:03:54.050Z,102814.97
2023-04-04T03:06:23.762Z,102821.22
2023-04-04T03:08:52.139Z,102816.25
2023-04-04T03:11:21.515Z,102812.38
2023-04-04T03:13:52.365Z,102813.94
2023-04-04T03:16:27.091Z,102818.50
2023-04-04T03:18:57.245Z,102815.88
2023-04-04T03:21:25.933Z,102825.41
2023-04-04T03:23:57.980Z,102820.78
2023-04-04T03:26:28.239Z,102812.81
2023-04-04T03:28:56.911Z,102817.31
2023-04-04T03:31:26.822Z,102823.59
2023-04-04T03:33:56.560Z,102830.47
2023-04-04T03:36:24.978Z,102835.03
2023-04-04T03:38:53.402Z,102838.31
2023-04-04T03:41:21.671Z,102842.66
2023-04-04T03:43:50.372Z,102833.81
2023-04-04T03:46:19.401Z,102842.53
2023-04-04T03:48:48.403Z,102833.53
2023-04-04T03:51:24.851Z,102824.28
2023-04-04T03:53:53.175Z,102828.78
2023-04-04T03:56:21.563Z,102819.31
2023-04-04T03:58:50.009Z,102822.75
2023-04-04T04:01:21.717Z,102828.16
2023-04-04T04:03:50.201Z,102817.63
2023-04-04T04:06:20.947Z,102825.19
2023-04-04T04:08:50.084Z,102833.41
2023-04-04T04:11:18.394Z,102821.78
2023-04-04T04:13:46.743Z,102826.22
2023-04-04T04:16:15.612Z,102826.16
2023-04-04T04:18:43.998Z,102832.38
2023-04-04T04:21:17.091Z,102828.97
2023-04-04T04:23:46.801Z,102819.63
2023-04-04T04:26:15.096Z,102832.88
2023-04-04T04:28:43.486Z,102812.53
2023-04-04T04:31:16.817Z,102829.41
2023-04-04T04:33:49.692Z,102827.75
2023-04-04T04:36:21.173Z,102820.53
2023-04-04T04:38:57.448Z,102828.38
2023-04-04T04:41:29.853Z,102806.81
2023-04-04T04:43:58.342Z,102824.94
2023-04-04T04:46:28.293Z,102824.09
2023-04-04T04:48:56.970Z,102812.47
2023-04-04T04:51:29.897Z,102827.50
2023-04-04T04:54:01.408Z,102828.66
2023-04-04T04:56:30.505Z,102832.75
2023-04-04T04:59:08.975Z,102827.13
2023-04-04T05:01:39.613Z,102828.09
2023-04-04T05:04:08.065Z,102827.00
2023-04-04T05:06:54.839Z,102827.00
2023-04-04T05:09:25.090Z,102826.69
2023-04-04T05:11:53.639Z,102830.91
2023-04-04T05:14:26.869Z,102840.16
2023-04-04T05:16:58.535Z,102843.00
2023-04-04T05:19:31.141Z,102844.66
2023-04-04T05:22:00.325Z,102844.91
2023-04-04T05:24:38.675Z,102845.00
2023-04-04T05:27:08.356Z,102839.75
2023-04-04T05:29:42.997Z,102848.53
2023-04-04T05:32:11.806Z,102846.84
2023-04-04T05:34:42.476Z,102848.59
2023-04-04T05:37:15.092Z,102855.69
2023-04-04T05:39:49.290Z,102844.19
2023-04-04T05:42:19.107Z,102848.25
2023-04-04T05:44:51.883Z,102851.34
2023-04-04T05:47:22.057Z,102840.94
2023-04-04T05:49:51.096Z,102859.88
2023-04-04T05:52:20.618Z,102861.47
2023-04-04T05:54:51.343Z,102855.84
2023-04-04T05:57:26.889Z,102866.63
2023-04-04T05:59:58.624Z,102866.75
2023-04-04T06:02:27.846Z,102868.16
2023-04-04T06:05:01.014Z,102861.34
2023-04-04T06:07:33.684Z,102866.38
2023-04-04T06:10:03.597Z,102860.41
2023-04-04T06:12:34.010Z,102861.09
2023-04-04T06:15:04.842Z,102870.78
2023-04-04T06:17:33.552Z,102864.53
2023-04-04T06:20:01.904Z,102855.00
2023-04-04T06:22:30.369Z,102854.66
2023-04-04T06:24:58.709Z,102856.19
2023-04-04T06:27:30.010Z,102862.59
2023-04-04T06:30:00.360Z,102864.47
2023-04-04T06:32:29.179Z,102880.13
2023-04-04T06:34:57.485Z,102870.44
2023-04-04T06:37:39.094Z,102869.63
2023-04-04T06:40:15.758Z,102867.47
2023-04-04T06:42:52.231Z,102859.16
2023-04-04T06:45:23.624Z,102862.53
2023-04-04T06:47:53.555Z,102859.66
2023-04-04T06:50:23.349Z,102856.25
2023-04-04T06:52:52.677Z,102861.25
2023-04-04T06:55:21.299Z,102856.78
2023-04-04T06:57:51.545Z,102760.25
2023-04-04T07:00:21.230Z,102866.03
2023-04-04T07:02:50.474Z,102863.44
2023-04-04T07:05:19.011Z,102866.06
2023-04-04T07:07:47.756Z,102873.53
2023-04-04T07:10:16.234Z,102875.84
2023-04-04T07:12:45.398Z,102879.44
2023-04-04T07:15:15.561Z,102878.13
2023-04-04T07:17:44.234Z,102876.34
2023-04-04T07:20:13.451Z,102880.84
2023-04-04T07:22:42.639Z,102876.81
2023-04-04T07:25:12.278Z,102882.53
2023-04-04T07:27:41.758Z,102879.72
2023-04-04T07:30:11.796Z,102881.25
2023-04-04T07:32:41.609Z,102894.00
2023-04-04T07:35:10.897Z,102884.88
2023-04-04T07:37:39.465Z,102884.38
2023-04-04T07:40:09.704Z,102885.50
2023-04-04T07:42:38.072Z,102881.72
2023-04-04T07:45:07.453Z,102874.16
2023-04-04T07:47:36.060Z,102891.13
2023-04-04T07:50:07.867Z,102887.47
2023-04-04T07:52:36.250Z,102888.13
2023-04-04T07:55:07.238Z,102883.31
2023-04-04T07:57:39.036Z,102886.72
2023-04-04T08:00:10.132Z,102872.63
2023-04-04T08:02:41.970Z,102877.66
2023-04-04T08:05:12.219Z,102878.34
2023-04-04T08:07:40.811Z,102872.13
2023-04-04T08:10:11.264Z,102876.66
2023-04-04T08:12:40.354Z,102869.84
2023-04-04T08:15:09.940Z,102869.84
2023-04-04T08:17:38.689Z,102868.56
2023-04-04T08:20:08.611Z,102897.84
2023-04-04T08:22:38.470Z,102868.75
2023-04-04T08:25:07.513Z,102868.03
2023-04-04T08:27:35.907Z,102831.72
2023-04-04T08:30:05.797Z,102866.28
2023-04-04T08:32:34.161Z,102864.06
2023-04-04T08:35:02.588Z,102869.56
2023-04-04T08:37:31.169Z,102881.09
2023-04-04T08:40:04.924Z,102876.59
2023-04-04T08:42:36.182Z,102867.47
2023-04-04T08:45:05.991Z,102871.56
2023-04-04T08:47:36.786Z,102866.53
2023-04-04T08:50:08.438Z,102863.69
2023-04-04T08:52:38.179Z,102878.38
2023-04-04T08:55:09.956Z,102868.66
2023-04-04T08:57:38.353Z,102870.44
2023-04-04T09:00:09.277Z,102859.00
2023-04-04T09:02:48.365Z,102861.34
2023-04-04T09:05:17.664Z,102751.91
2023-04-04T09:07:46.523Z,102863.50
2023-04-04T09:10:16.303Z,102856.53
2023-04-04T09:12:48.539Z,102884.75
2023-04-04T09:15:17.394Z,102859.41
2023-04-04T09:17:45.790Z,102855.56
2023-04-04T09:20:42.801Z,102854.72
2023-04-04T09:23:13.800Z,102859.66
2023-04-04T09:28:22.110Z,102854.28
2023-04-04T09:30:51.615Z,102854.97
2023-04-04T09:33:22.137Z,102834.31
2023-04-04T09:35:53.511Z,102851.78
2023-04-04T09:38:23.505Z,102833.84
2023-04-04T09:40:53.958Z,102839.78
2023-04-04T09:43:24.343Z,102853.38
2023-04-04T09:45:55.188Z,102868.03
2023-04-04T09:48:34.636Z,102872.59
2023-04-04T09:51:07.345Z,102760.88
2023-04-04T09:53:38.129Z,102866.88
2023-04-04T09:56:09.122Z,102860.97
2023-04-04T09:58:46.333Z,102861.31
2023-04-04T10:01:21.007Z,102846.47
2023-04-04T10:03:54.200Z,102851.19
2023-04-04T10:06:25.110Z,102848.84
2023-04-04T10:08:53.697Z,102845.06
2023-04-04T10:11:33.530Z,102852.81
2023-04-04T10:14:03.874Z,102857.25
2023-04-04T10:16:34.774Z,102811.88
2023-04-04T10:19:03.714Z,102849.22
2023-04-04T10:21:32.618Z,102843.75
2023-04-04T10:24:03.145Z,102835.53
2023-04-04T10:26:32.872Z,102849.88
2023-04-04T10:29:01.260Z,102841.69
2023-04-04T10:31:32.349Z,102828.19
2023-04-04T10:34:12.566Z,102843.75
2023-04-04T10:36:47.188Z,102843.06
2023-04-04T10:39:24.445Z,102831.66
2023-04-04T10:41:54.761Z,102832.28
2023-04-04T10:44:31.574Z,102812.69
2023-04-04T10:47:07.706Z,102815.59
2023-04-04T10:49:37.259Z,102824.09
2023-04-04T10:52:05.836Z,102817.75
2023-04-04T10:54:34.712Z,102825.31
2023-04-04T10:57:04.634Z,102812.31
2023-04-04T10:59:33.101Z,102817.41
2023-04-04T11:02:03.329Z,102807.84
2023-04-04T11:04:37.797Z,102811.09
2023-04-04T11:07:18.237Z,102793.97
2023-04-04T11:10:14.561Z,102807.16
2023-04-04T11:12:47.647Z,102803.78
2023-04-04T11:15:16.447Z,102799.63
2023-04-04T11:18:00.547Z,102804.38
2023-04-04T11:20:35.590Z,102770.59
2023-04-04T11:23:11.376Z,102790.28
2023-04-04T11:25:42.311Z,102785.25
2023-04-04T11:28:15.997Z,102730.47
2023-04-04T11:30:48.952Z,102784.41
2023-04-04T11:33:32.185Z,102786.81
2023-04-04T11:36:08.234Z,102782.88
2023-04-04T11:38:41.178Z,102784.72
2023-04-04T11:41:10.739Z,102772.75
2023-04-04T11:43:46.676Z,102772.88
2023-04-04T11:46:19.738Z,102765.22
2023-04-04T11:48:49.462Z,102772.13
2023-04-04T11:51:19.841Z,102773.97
2023-04-04T11:53:49.136Z,102772.22
2023-04-04T11:56:17.617Z,102801.72
2023-04-04T11:58:56.015Z,102764.28
2023-04-04T12:01:27.158Z,102763.25
2023-04-04T12:03:55.537Z,102768.94
2023-04-04T12:06:23.933Z,102744.41
2023-04-04T12:08:52.234Z,102753.06
2023-04-04T12:11:22.836Z,102742.28
2023-04-04T12:13:53.644Z,102746.06
2023-04-04T12:16:22.124Z,102745.25
2023-04-04T12:18:51.004Z,102745.91
2023-04-04T12:21:19.985Z,102737.41
2023-04-04T12:23:49.553Z,102728.28
2023-04-04T12:26:19.036Z,102732.09
2023-04-04T12:28:48.039Z,102730.22
2023-04-04T12:31:18.220Z,102739.66
2023-04-04T12:33:46.569Z,102738.31
2023-04-04T12:36:15.243Z,102720.91
2023-04-04T12:38:59.298Z,102718.91
2023-04-04T12:41:27.973Z,102740.16
2023-04-04T12:44:03.887Z,102715.69
2023-04-04T12:46:39.915Z,102714.22
2023-04-04T12:49:09.525Z,102697.59
2023-04-04T12:51:39.511Z,102706.75
2023-04-04T12:54:08.533Z,102713.69
2023-04-04T12:56:41.849Z,102701.03
2023-04-04T12:59:11.679Z,102711.09
2023-04-04T13:01:42.444Z,102690.41
2023-04-04T13:04:10.851Z,102687.41
2023-04-04T13:06:39.475Z,102688.66
2023-04-04T13:09:08.701Z,102678.13
2023-04-04T13:11:58.804Z,102683.09
2023-04-04T13:14:27.912Z,102664.53
2023-04-04T13:17:09.453Z,102668.63
2023-04-04T13:19:37.934Z,102674.03
2023-04-04T13:22:10.704Z,102664.81
2023-04-04T13:24:39.937Z,102651.88
2023-04-04T13:27:09.390Z,102654.47
2023-04-04T13:29:37.654Z,102662.78
2023-04-04T13:32:07.455Z,102661.53
2023-04-04T13:34:36.164Z,102651.22
2023-04-04T13:37:04.707Z,102636.22
2023-04-04T13:39:33.163Z,102651.00
2023-04-04T13:42:02.111Z,102653.00
2023-04-04T13:44:30.543Z,102648.56
2023-04-04T13:46:59.224Z,102629.34
2023-04-04T13:49:28.972Z,102639.53
2023-04-04T13:51:57.336Z,102638.31
2023-04-04T13:54:25.647Z,102627.88
2023-04-04T13:56:54.764Z,102634.22
2023-04-04T13:59:24.107Z,102626.41
2023-04-04T14:01:52.608Z,102615.34
2023-04-04T14:04:24.096Z,102616.03
2023-04-04T14:06:54.124Z,102586.25
2023-04-04T14:09:22.407Z,102619.56
2023-04-04T14:11:50.910Z,102615.97
2023-04-04T14:14:19.200Z,102611.91
2023-04-04T14:16:47.566Z,102602.66
2023-04-04T14:19:16.366Z,102607.69
2023-04-04T14:21:44.702Z,102607.19
2023-04-04T14:24:17.912Z,102587.91
2023-04-04T14:26:47.124Z,102603.44
2023-04-04T14:29:16.010Z,102590.63
2023-04-04T14:31:44.484Z,102598.94
2023-04-04T14:34:12.829Z,102600.91
2023-04-04T14:36:41.550Z,102591.31
2023-04-04T14:39:09.997Z,102589.84
2023-04-04T14:41:39.948Z,102574.88
2023-04-04T14:44:08.706Z,102582.00
2023-04-04T14:46:37.087Z,102574.97
2023-04-04T14:49:06.468Z,102571.53
2023-04-04T14:51:35.681Z,102565.44
2023-04-04T14:54:04.052Z,102559.56
2023-04-04T14:56:32.484Z,102557.31
2023-04-04T14:59:05.397Z,102550.34
2023-04-04T15:01:33.858Z,102547.75
2023-04-04T15:04:03.764Z,102548.91
2023-04-04T15:06:36.091Z,102529.56
2023-04-04T15:09:06.029Z,102548.25
2023-04-04T15:11:35.381Z,102544.97
2023-04-04T15:14:06.587Z,102545.91
2023-04-04T15:16:36.132Z,102534.00
2023-04-04T15:19:04.468Z,102535.41
2023-04-04T15:21:32.832Z,102541.34
2023-04-04T15:24:01.189Z,102531.94
2023-04-04T15:26:29.594Z,102541.13
2023-04-04T15:28:57.895Z,102534.66
2023-04-04T15:31:28.161Z,102529.47
2023-04-04T15:33:59.210Z,102532.75
2023-04-04T15:36:28.822Z,102530.84
2023-04-04T15:38:57.478Z,102520.66
2023-04-04T15:41:25.847Z,102522.88
2023-04-04T15:43:54.168Z,102522.09
2023-04-04T15:46:22.504Z,102522.34
2023-04-04T15:48:53.036Z,102512.00
2023-04-04T15:51:22.186Z,102531.53
2023-04-04T15:53:51.062Z,102507.25
2023-04-04T15:56:19.391Z,102507.59
2023-04-04T15:58:47.758Z,102525.22
2023-04-04T16:01:16.214Z,102516.00
2023-04-04T16:03:44.961Z,102513.63
2023-04-04T16:06:14.874Z,102515.75
2023-04-04T16:08:44.484Z,102505.25
2023-04-04T16:11:13.388Z,102516.91
2023-04-04T16:13:41.686Z,102517.03
2023-04-04T16:16:10.057Z,102503.72
2023-04-04T16:18:38.428Z,102504.69
2023-04-04T16:21:07.033Z,102510.75
2023-04-04T16:23:37.126Z,102502.88
2023-04-04T16:26:05.753Z,102510.88
2023-04-04T16:28:37.483Z,102485.09
2023-04-04T16:31:07.941Z,102500.25
2023-04-04T16:33:36.377Z,102500.25
2023-04-04T16:36:05.013Z,102505.69
2023-04-04T16:38:33.382Z,102496.81
2023-04-04T16:41:03.513Z,102496.81
2023-04-04T16:43:31.897Z,102493.28
2023-04-04T16:46:00.348Z,102501.28
2023-04-04T16:48:28.702Z,102498.66
2023-04-04T16:50:57.769Z,102491.56
2023-04-04T16:53:26.102Z,102497.75
2023-04-04T16:55:54.859Z,102494.19
2023-04-04T16:58:24.786Z,102489.75
2023-04-04T17:00:53.075Z,102480.00
2023-04-04T17:03:21.467Z,102488.00
2023-04-04T17:05:49.767Z,102484.31
2023-04-04T17:08:18.186Z,102473.53
2023-04-04T17:10:46.527Z,102473.44
2023-04-04T17:13:15.273Z,102482.38
2023-04-04T17:15:48.512Z,102469.88
2023-04-04T17:18:17.063Z,102481.31
2023-04-04T17:20:47.775Z,102472.41
2023-04-04T17:23:17.009Z,102481.25
2023-04-04T17:25:45.540Z,102454.47
2023-04-04T17:28:13.983Z,102472.34
2023-04-04T17:30:42.596Z,102466.97
2023-04-04T17:33:12.626Z,102458.81
2023-04-04T17:35:41.306Z,102462.38
2023-04-04T17:38:09.680Z,102464.97
2023-04-04T17:40:40.710Z,102473.84
2023-04-04T17:43:09.539Z,102471.13
2023-04-04T17:45:38.986Z,102472.94
2023-04-04T17:48:07.354Z,102474.63
2023-04-04T17:50:37.087Z,102472.81
2023-04-04T17:53:07.215Z,102477.19
2023-04-04T17:55:36.737Z,102474.47
2023-04-04T17:58:05.108Z,102476.22
2023-04-04T18:00:33.579Z,102471.75
2023-04-04T18:03:02.057Z,102480.53
2023-04-04T18:05:31.247Z,102485.81
2023-04-04T18:08:04.740Z,102483.09
2023-04-04T18:10:33.225Z,102477.78
2023-04-04T18:13:01.640Z,102483.03
2023-04-04T18:15:30.521Z,102481.28
2023-04-04T18:17:58.950Z,102486.41
2023-04-04T18:20:34.620Z,102489.78
2023-04-04T18:23:06.022Z,102478.25
2023-04-04T18:25:34.778Z,102482.53
2023-04-04T18:28:03.116Z,102486.13
2023-04-04T18:30:31.854Z,102475.22
2023-04-04T18:33:00.247Z,102483.19
2023-04-04T18:35:28.843Z,102483.81
2023-04-04T18:37:57.266Z,102496.03
2023-04-04T18:40:27.088Z,102478.44
2023-04-04T18:42:55.632Z,102473.78
2023-04-04T18:45:33.589Z,102486.25
2023-04-04T18:48:08.350Z,102485.44
2023-04-04T18:50:37.077Z,102481.72
2023-04-04T18:53:05.487Z,102392.44
2023-04-04T18:55:35.136Z,102484.28
2023-04-04T18:58:03.434Z,102488.66
2023-04-04T19:00:31.975Z,102488.66
2023-04-04T19:03:00.644Z,102491.31
2023-04-04T19:05:34.081Z,102493.88
2023-04-04T19:08:04.408Z,102484.16
2023-04-04T19:10:35.268Z,102486.84
2023-04-04T19:13:03.608Z,102489.41
2023-04-04T19:15:31.921Z,102492.03
2023-04-04T19:18:00.410Z,102484.19
2023-04-04T19:20:28.935Z,102482.25
2023-04-04T19:22:57.246Z,102484.03
2023-04-04T19:25:25.646Z,102487.50
2023-04-04T19:27:55.545Z,102480.22
2023-04-04T19:30:47.308Z,102482.88
2023-04-04T19:33:17.862Z,102485.53
2023-04-04T19:35:53.694Z,102485.59
2023-04-04T19:38:25.928Z,102482.78
2023-04-04T19:40:58.722Z,102483.53
2023-04-04T19:43:30.345Z,102468.47
2023-04-04T19:46:01.191Z,102469.47
2023-04-04T19:48:44.726Z,102473.88
2023-04-04T19:51:42.599Z,102472.03
2023-04-04T19:54:15.948Z,102470.31
2023-04-04T19:56:47.665Z,102464.06
2023-04-04T20:00:01.486Z,102470.97
2023-04-04T20:02:54.565Z,102460.84
2023-04-04T20:06:06.450Z,102472.44
2023-04-04T20:08:41.191Z,102466.25
2023-04-04T20:11:09.730Z,102466.22
2023-04-04T20:13:39.124Z,102448.22
2023-04-04T20:16:13.824Z,102475.00
2023-04-04T20:18:44.759Z,102488.31
2023-04-04T20:21:16.643Z,102479.56
2023-04-04T20:23:48.493Z,102488.06
2023-04-04T20:26:51.000Z,102477.53
2023-04-04T20:29:22.679Z,102503.16
2023-04-04T20:31:55.442Z,102470.38
2023-04-04T20:34:36.422Z,102475.75
2023-04-04T20:37:09.726Z,102479.19
2023-04-04T20:39:48.565Z,102476.56
2023-04-04T20:42:40.042Z,102475.63
2023-04-04T20:45:46.556Z,102469.41
2023-04-04T20:48:37.874Z,102466.75
2023-04-04T20:51:24.661Z,102456.13
2023-04-04T20:53:53.917Z,102447.06
2023-04-04T20:56:46.555Z,102456.00
2023-04-04T20:59:43.332Z,102442.66
2023-04-04T21:02:19.793Z,102448.09
2023-04-04T21:04:52.124Z,102444.50
2023-04-04T21:07:39.929Z,102449.72
2023-04-04T21:10:24.919Z,102444.34
2023-04-04T21:12:53.432Z,102422.06
2023-04-04T21:15:24.526Z,102447.81
2023-04-04T21:17:53.178Z,102440.75
2023-04-04T21:21:16.631Z,102438.03
2023-04-04T21:23:56.797Z,102436.19
2023-04-04T21:26:34.424Z,102440.56
2023-04-04T21:29:05.790Z,102436.97
2023-04-04T21:31:39.800Z,102440.34
2023-04-04T21:34:15.150Z,102432.28
2023-04-04T21:36:46.197Z,102438.41
2023-04-04T21:39:16.697Z,102431.25
2023-04-04T21:41:45.937Z,102430.47
2023-04-04T21:44:15.633Z,102438.50
2023-04-04T21:46:44.240Z,102433.06
2023-04-04T21:49:13.134Z,102437.50
2023-04-04T21:51:42.327Z,102392.00
2023-04-04T21:54:12.223Z,102396.22
2023-04-04T21:56:40.722Z,102440.84
2023-04-04T21:59:11.796Z,102385.53
2023-04-04T22:01:40.832Z,102443.22
2023-04-04T22:04:09.385Z,102437.66
2023-04-04T22:06:37.776Z,102435.97
2023-04-04T22:09:06.905Z,102443.22
2023-04-04T22:11:44.197Z,102442.00
2023-04-04T22:14:18.152Z,102437.16
2023-04-04T22:16:46.835Z,102439.88
2023-04-04T22:19:15.396Z,102438.03
2023-04-04T22:21:47.586Z,102437.78
2023-04-04T22:24:17.991Z,102433.94
2023-04-04T22:26:50.441Z,102426.22
2023-04-04T22:29:18.849Z,102435.72
2023-04-04T22:31:47.211Z,102431.94
2023-04-04T22:34:15.756Z,102410.56
2023-04-04T22:36:44.841Z,102406.78
2023-04-04T22:39:15.843Z,102412.50
2023-04-04T22:41:45.142Z,102408.59
2023-04-04T22:44:14.856Z,102411.59
2023-04-04T22:46:43.481Z,102415.53
2023-04-04T22:49:13.315Z,102410.03
2023-04-04T22:51:45.584Z,102402.81
2023-04-04T22:54:16.390Z,102405.63
2023-04-04T22:56:45.432Z,102399.47
2023-04-04T22:59:15.394Z,102411.00
2023-04-04T23:01:43.976Z,102405.03
2023-04-04T23:04:12.594Z,102398.97
2023-04-04T23:06:41.225Z,102392.13
2023-04-04T23:09:09.563Z,102369.97
2023-04-04T23:11:38.897Z,102406.84
2023-04-04T23:14:09.648Z,102397.44
2023-04-04T23:16:40.082Z,102386.22
2023-04-04T23:19:08.795Z,102399.97
2023-04-04T23:21:37.873Z,102395.78
2023-04-04T23:24:08.123Z,102389.41
2023-04-04T23:26:36.608Z,102342.94
2023-04-04T23:29:05.705Z,102380.75
2023-04-04T23:31:34.247Z,102383.13
2023-04-04T23:34:03.942Z,102370.94
2023-04-04T23:36:32.383Z,102378.63
2023-04-04T23:39:00.778Z,102374.78
2023-04-04T23:41:29.179Z,102373.63
2023-04-04T23:43:57.524Z,102368.34
2023-04-04T23:46:26.359Z,102371.50
2023-04-04T23:48:54.727Z,102366.16
2023-04-04T23:51:25.679Z,102366.16
2023-04-04T23:53:54.019Z,102371.19
2023-04-04T23:56:22.553Z,102356.88
2023-04-04T23:58:51.223Z,102367.69
